Phoenix, AZ (85017)

11:34 PM MST on July 02, 2015 (GMT -0700)
Phoenix S of Christown | | Change Station
CLOSE
Current Station
Personal Weather Station
Location: Phoenix, AZ
Elevation: 1152 ft
Nearby Weather Stations

Elev 1152 ft 33.51 °N, 112.10 °W | Updated 10 minutes ago

Clear
Clear
96.3 °F
Feels Like 96 °F
N
3.0
Wind Variable Wind from WSW
Gusts 6.0 mph

Today
High -- | Low -- °F
--% Chance of Precip.
Yesterday
High -- | Low -- °F
Precip. -- in
5:22 AM 7:42 PM
Full, 98% visible
Pressure 29.70 in
Visibility 10.0 miles
Clouds Few 18000 ft
Scattered Clouds 25000 ft
Heat Index 96 °F
Dew Point 59 °F
Humidity 29%
Rainfall in
Snow Depth Not available.
UV 0 out of 12
Pollen 3.90 out of 12
Air Quality Not available.
Flu Activity Not available.
METAR KPHX 030551Z 25011KT 10SM FEW180 SCT250 37/12 A2977 RMK AO2 SLP057 T03720117 10411 20372 51013

More Conditions Fewer Conditions

Pressure 29.70 in
Visibility 10.0 miles
Clouds Few 18000 ft
Scattered Clouds 25000 ft
Heat Index 96 °F
Dew Point 59 °F
Humidity 29%
Rainfall in
Snow Depth Not available.
UV 0 out of 12
Pollen 3.90 out of 12
Air Quality Not available.
Flu Activity Not available.
METAR KPHX 030551Z 25011KT 10SM FEW180 SCT250 37/12 A2977 RMK AO2 SLP057 T03720117 10411 20372 51013

More Conditions Fewer Conditions

10-Day Weather Forecast

×

Almanac

Astronomy

Jul. 02, 2015 Rise Set
Actual Time
Civil Twilight
Nautical Twilight
Astronomical Twilight
Moon
Length of Visible Light
Length of Day
Tomorrow will be .
, % of the Moon is Illuminated

Today's Extremes

State Highs State Lows

Community

WunderPhotos

Upload Photos

1,834,634 photos uploaded!

WunderBlogs® & News

Nearby

Air Quality

  Air Quality AQ Index Pollutant
Not available.

Snow Depth

Station Depth Elevation

Earthquake Activity

City Distance Mag. Time & Date
Minimum magnitude displayed is 2.5.

Coastal Water Temperatures

Place Temperature

Stations

Nearby Weather Stations

Station Location Temp. Windchill Dew Point Humidity Wind Precip. Elev Updated Type